首页
METAR-TAF:

METAR-TAF

机场 :

L.F.韋德國際機場

百慕大, 百慕大

纬度: 32-22N, 经度: 064-41W, 海拔: 6米

当前天气观测

该预报发布于54分钟前的19:55 UTC
风速6节,风向西北,在西之间变化
温度 26°C
湿度 70%
气压 1016 hPa
能见度10公里或以上
少量云层高于2500英尺

METAR: TXKF 261955Z 32006KT 270V010 9999 FEW025 26/20 Q1016

时间: 17:49 (20:49 UTC)

预报

该预报发布于3小时和6分钟前的17:43 UTC
预报有效从26日的 18点(UTC)到 27日的 18点(UTC)
风速6节,风向西转西北
能见度10公里或以上
少量云层高于2200英尺

TAF: TXKF 261743Z 2618/2718 30006KT 9999 FEW022

超过4000个机场的气象观测和天气预报(METAR&TAF报告)。

可查询的气象台以黄色和红色小点在地图上表示。

将鼠标移到小点上方,可查看气象台名称。

然后点击查看天气观测和预报。

如需切换地图:点击带黑十字的绿色按钮放大地图;点击带横线的绿色按钮缩小地图;或者点击绿色箭头查看邻近地区的地图。


METAR-TAF: